NCAR-RAP Real-Time Weather Data

Output produced by METARs form (08 May 2021  17:11 UTC)
found at http://weather.rap.ucar.edu/surface/
 
KBOI 081653Z 30013KT 10SM CLR 09/M04 A3026 RMK AO2 SLP244 T00941039
KBOI 081553Z 29009G18KT 10SM CLR 08/M04 A3025 RMK AO2 SLP242 T00781044
KBOI 081453Z 30012KT 10SM CLR 06/M04 A3025 RMK AO2 SLP240 T00611039 53013
KBOI 081353Z 31009KT 10SM CLR 04/M04 A3023 RMK AO2 SLP235 T00441039
KBOI 081253Z 30009KT 10SM CLR 03/M04 A3022 RMK AO2 SLP231 T00331044
KBOI 081153Z 32004KT 10SM CLR 03/M04 A3020 RMK AO2 SLP225 T00331039 10094 20033 51021
KBOI 081053Z 29007KT 10SM CLR 04/M05 A3018 RMK AO2 SLP216 T00441050
KBOI 080953Z 33009KT 10SM CLR 06/M06 A3016 RMK AO2 SLP207 T00561056
KBOI 080853Z 31011KT 10SM CLR 06/M06 A3014 RMK AO2 SLP199 T00611061 51010
KBOI 080753Z 30011KT 10SM CLR 07/M07 A3013 RMK AO2 SLP198 T00721067
KBOI 080653Z 33012KT 10SM CLR 08/M07 A3011 RMK AO2 SLP191 T00831067 402110083
KBOI 080553Z 33013KT 10SM CLR 09/M07 A3010 RMK AO2 PK WND 33026/0525 SLP188 T00941067 10178 20094 51027
KBOI 080453Z 33015KT 10SM CLR 10/M07 A3009 RMK AO2 PK WND 33027/0355 SLP181 T01001067
KBOI 080353Z 33015G23KT 10SM CLR 12/M06 A3006 RMK AO2 PK WND 34030/0324 SLP171 T01171061
KBOI 080253Z 33015G30KT 10SM CLR 13/M07 A3002 RMK AO2 PK WND 32032/0202 SLP156 T01331067 53012
KBOI 080153Z 32024G31KT 10SM CLR 15/M07 A2999 RMK AO2 PK WND 33033/0110 SLP147 T01501067
KBOI 080053Z 33020G30KT 10SM CLR 17/M07 A2999 RMK AO2 PK WND 34031/0033 SLP142 T01671072
KBOI 072353Z 34021G29KT 10SM CLR 17/M04 A2998 RMK AO2 PK WND 30032/2300 SLP139 T01721044 10189 20144 55005
KBOI 072253Z 32017G25KT 10SM CLR 18/M02 A2997 RMK AO2 PK WND 33028/2240 SLP133 T01831022
KBOI 072153Z 32016G27KT 10SM SCT075 18/M02 A2998 RMK AO2 PK WND 31027/2150 WSHFT 2134 SLP136 T01831017
KBOI 072053Z 35012G21KT 10SM SCT100 18/M01 A3000 RMK AO2 PK WND 33026/2015 SLP141 T01781011 58002
KBOI 071953Z 32014G23KT 10SM FEW080 17/M01 A3000 RMK AO2 SLP139 T01721006
KBOI 071853Z 32015KT 10SM CLR 16/M01 A3001 RMK AO2 SLP144 T01561006
KBOI 071753Z 32016G26KT 10SM CLR 15/00 A3000 RMK AO2 PK WND 32029/1706 SLP141 T01500000 10156 20117 51007
KBOI 071653Z 34015KT 10SM CLR 14/01 A3000 RMK AO2 SLP139 T01390011
KBOI 071553Z 33014KT 10SM CLR 12/01 A3000 RMK AO2 SLP138 T01220006
KBOI 071453Z 33009KT 10SM CLR 12/01 A2998 RMK AO2 SLP132 T01220006 51012
KBOI 071353Z 32012KT 10SM CLR 12/00 A2997 RMK AO2 SLP128 T01170000
KBOI 071253Z 34011KT 10SM SCT090 BKN120 12/01 A2995 RMK AO2 SLP118 T01220011
KBOI 071153Z 31010KT 10SM BKN110 12/02 A2994 RMK AO2 SLP114 60000 T01220017 10228 20122 51016
KBOI 071053Z 31013G18KT 10SM OVC110 13/02 A2994 RMK AO2 RAE09 SLP111 P0000 T01330017
KBOI 070953Z 32010KT 10SM -RA BKN110 14/03 A2991 RMK AO2 SLP101 P0000 T01440033
KBOI 070853Z 29019G26KT 10SM -RA FEW110 17/04 A2989 RMK AO2 PK WND 29026/0852 SLP093 P0000 60000 T01670039 53014
KBOI 070753Z 32007KT 10SM -RA BKN110 20/06 A2985 RMK AO2 RAB01 SLP078 P0000 T02000061
KBOI 070653Z 28012KT 10SM BKN095 21/07 A2986 RMK AO2 RAB38E50 SLP081 P0000 T02060072 403220117
KBOI 070553Z 00000KT 10SM BKN110 23/04 A2985 RMK AO2 SLP076 60000 T02280039 10317 20222 55000
KBOI 070453Z 29007G17KT 10SM FEW100 23/03 A2983 RMK AO2 SLP073 T02330033
KBOI 070353Z 00000KT 10SM CLR 25/02 A2981 RMK AO2 WSHFT 0258 RAE0257 SLP068 P0000 T02500017
KBOI 070318Z 08014KT 10SM FEW065 FEW075 FEW100 26/02 A2979 RMK AO2 WSHFT 0258 RAE0257 P0000 T02560017
KBOI 070253Z 24006G40KT 7SM -RA FEW075 SCT090 BKN110 26/02 A2985 RMK AO2 PK WND 25040/0246 RAB48 SLP083 P0000 60000 T02560017 53020
KBOI 070153Z 30013G19KT 10SM CLR 28/M01 A2978 RMK AO2 PK WND 14030/0113 SLP061 T02831011
KBOI 070053Z 15012KT 10SM CLR 31/M02 A2976 RMK AO2 SLP053 T03061022
KBOI 062353Z 15014G22KT 10SM CLR 32/M03 A2978 RMK AO2 SLP058 T03171028 10322 20272 56034
KBOI 062253Z 16008G17KT 10SM CLR 32/M02 A2981 RMK AO2 SLP068 T03221022
KBOI 062153Z 14010G21KT 120V180 10SM CLR 32/M03 A2985 RMK AO2 SLP081 T03171028
KBOI 062053Z 14014KT 10SM CLR 31/M04 A2989 RMK AO2 SLP095 T03061044 56022
KBOI 061953Z 15018G28KT 10SM CLR 31/M05 A2991 RMK AO2 PK WND 18029/1923 SLP103 T03061050
KBOI 061853Z 15019G26KT 10SM CLR 29/M06 A2993 RMK AO2 PK WND 13026/1853 SLP112 T02941061
KBOI 061753Z 14011G20KT 10SM CLR 27/M03 A2996 RMK AO2 SLP121 T02721033 10272 20117 58019